Time;durP1;ratioP1;P1;durP2;ratioP2;P2;SDS_P1;SDS_P2;PMS_P1;PMS_P2;Temp;Humidity;BMP_temperature;BMP_pressure;BME280_temperature;BME280_humidity;BME280_pressure;Samples;Min_cycle;Max_cycle;Signal;HPM_P1;HPM_P2
2021/09/19 00:01:47;;;;;;;8.13;5.07;;;;;;;17.60;85.04;98580.72;5147165;27;20058;-92
2021/09/19 00:04:13;;;;;;;8.77;5.32;;;;;;;17.53;84.63;98564.09;5145288;27;20043;-96
2021/09/19 00:06:39;;;;;;;8.82;5.10;;;;;;;17.54;85.17;98573.00;5153366;27;20043;-92
2021/09/19 00:09:05;;;;;;;8.80;5.00;;;;;;;17.50;85.75;98585.78;5151834;27;20045;-94
2021/09/19 00:11:33;;;;;;;11.43;5.85;;;;;;;17.49;85.72;98585.88;5151362;27;20047;-92
2021/09/19 00:13:59;;;;;;;8.95;4.97;;;;;;;17.43;86.17;98577.19;5147497;27;20383;-95
2021/09/19 00:16:25;;;;;;;7.55;5.15;;;;;;;17.37;86.77;98566.81;5147914;27;20057;-94
2021/09/19 00:18:50;;;;;;;10.65;5.38;;;;;;;17.49;86.89;98591.25;5144386;27;20031;-92
2021/09/19 00:21:16;;;;;;;8.90;5.00;;;;;;;17.40;86.98;98577.38;5148279;27;20134;-93
2021/09/19 00:23:42;;;;;;;7.32;4.78;;;;;;;17.37;87.43;98584.72;5148381;27;20060;-95
2021/09/19 00:26:08;;;;;;;7.60;5.22;;;;;;;17.36;86.72;98591.09;5142891;27;20541;-93
2021/09/19 00:28:35;;;;;;;10.90;5.28;;;;;;;17.41;87.07;98608.69;5147083;27;20365;-93
2021/09/19 00:31:01;;;;;;;11.60;4.85;;;;;;;17.23;87.90;98586.41;5147415;27;20042;-94
2021/09/19 00:33:27;;;;;;;7.78;5.18;;;;;;;17.36;87.42;98601.81;5144483;27;20043;-93
2021/09/19 00:35:53;;;;;;;7.93;5.13;;;;;;;17.28;87.16;98594.19;5148081;27;20068;-92
2021/09/19 00:38:19;;;;;;;8.25;5.15;;;;;;;17.24;87.09;98587.28;5145578;27;20498;-93
2021/09/19 00:40:45;;;;;;;10.52;5.25;;;;;;;17.31;87.34;98602.09;5146639;27;20665;-93
2021/09/19 00:43:11;;;;;;;9.32;5.05;;;;;;;17.25;88.22;98586.31;5144026;27;20084;-93
2021/09/19 00:45:38;;;;;;;9.63;5.07;;;;;;;17.23;87.61;98590.91;5151320;27;20073;-92
2021/09/19 00:48:04;;;;;;;10.52;5.13;;;;;;;17.19;87.88;98583.97;5145236;27;20039;-93
2021/09/19 00:50:30;;;;;;;10.30;5.38;;;;;;;17.19;88.09;98589.34;5146715;27;20560;-92
2021/09/19 00:52:56;;;;;;;7.78;4.85;;;;;;;17.16;87.99;98592.22;5145592;27;20054;-91
2021/09/19 00:55:22;;;;;;;8.80;5.10;;;;;;;17.09;87.89;98577.38;5144693;27;20584;-93
2021/09/19 00:57:51;;;;;;;7.53;5.30;;;;;;;16.98;88.19;98562.75;5141516;27;20129;-94
2021/09/19 01:00:20;;;;;;;7.35;5.38;;;;;;;17.14;88.27;98592.31;5144638;27;20117;-92
2021/09/19 01:02:47;;;;;;;8.55;5.57;;;;;;;17.05;88.81;98576.72;5144477;27;20483;-94
2021/09/19 01:05:16;;;;;;;7.90;5.03;;;;;;;17.11;88.29;98581.75;5150079;27;20126;-93
2021/09/19 01:07:43;;;;;;;9.55;5.47;;;;;;;17.02;88.40;98582.25;5148610;27;20042;-94
2021/09/19 01:10:11;;;;;;;6.85;4.90;;;;;;;17.06;88.11;98585.63;5143443;27;20122;-94
2021/09/19 01:12:39;;;;;;;7.90;5.15;;;;;;;16.96;88.56;98572.72;5147638;27;20034;-93
2021/09/19 01:15:06;;;;;;;8.90;5.20;;;;;;;16.85;88.46;98559.03;5147433;27;20098;-92
2021/09/19 01:17:32;;;;;;;9.60;4.78;;;;;;;16.75;88.98;98547.03;5150818;27;20128;-93
2021/09/19 01:20:00;;;;;;;9.82;5.28;;;;;;;16.78;89.32;98565.66;5142358;27;20073;-94
2021/09/19 01:22:31;;;;;;;10.02;5.65;;;;;;;16.82;89.82;98586.06;5146516;27;20043;-93
2021/09/19 01:24:59;;;;;;;9.75;5.53;;;;;;;16.83;90.09;98590.47;5144715;27;20131;-94
2021/09/19 01:27:25;;;;;;;9.38;5.35;;;;;;;16.80;89.89;98578.06;5142700;27;20047;-94
2021/09/19 01:29:51;;;;;;;10.48;5.10;;;;;;;16.73;90.16;98570.41;5150501;27;20036;-93
2021/09/19 01:32:21;;;;;;;7.82;5.50;;;;;;;16.55;90.20;98540.09;5141343;27;20043;-94
2021/09/19 01:34:48;;;;;;;9.88;6.43;;;;;;;16.66;90.46;98559.16;5143606;27;20488;-93
2021/09/19 01:37:14;;;;;;;9.02;5.72;;;;;;;16.61;90.44;98551.38;5146479;27;20361;-93
2021/09/19 01:39:39;;;;;;;8.20;5.47;;;;;;;16.69;90.61;98568.84;5147643;27;20038;-94
2021/09/19 01:42:07;;;;;;;8.45;5.75;;;;;;;16.51;90.52;98549.25;5148266;27;20088;-93
2021/09/19 01:44:33;;;;;;;10.57;5.90;;;;;;;16.64;90.95;98571.78;5150793;27;20079;-94
2021/09/19 01:46:59;;;;;;;10.35;5.93;;;;;;;16.60;91.36;98576.44;5147565;27;20442;-92
2021/09/19 01:49:25;;;;;;;10.18;5.72;;;;;;;16.57;90.96;98576.63;5144473;27;20496;-94
2021/09/19 01:51:51;;;;;;;10.05;6.07;;;;;;;16.58;92.10;98589.09;5146585;27;20038;-93
2021/09/19 01:54:16;;;;;;;13.27;6.40;;;;;;;16.61;91.93;98594.31;5146363;27;20039;-93
2021/09/19 01:56:42;;;;;;;12.90;6.25;;;;;;;16.58;92.01;98597.16;5148647;27;20038;-94
2021/09/19 01:59:10;;;;;;;8.48;6.30;;;;;;;16.56;92.12;98596.38;5155201;27;20053;-94
2021/09/19 02:01:36;;;;;;;10.02;6.45;;;;;;;16.48;91.76;98571.78;5146273;27;20046;-94
2021/09/19 02:04:01;;;;;;;11.45;6.32;;;;;;;16.49;91.64;98578.00;5144883;27;20047;-93
2021/09/19 02:06:27;;;;;;;9.23;6.78;;;;;;;16.38;92.25;98570.53;5148583;27;20133;-93
2021/09/19 02:08:53;;;;;;;11.23;6.35;;;;;;;16.47;92.48;98586.13;5147032;27;20130;-94
2021/09/19 02:11:21;;;;;;;12.02;5.95;;;;;;;16.51;92.57;98592.22;5142939;27;20088;-94
2021/09/19 02:13:48;;;;;;;7.82;5.82;;;;;;;16.44;92.34;98578.25;5151801;27;20042;-94
2021/09/19 02:16:20;;;;;;;9.45;5.75;;;;;;;16.40;91.77;98579.38;5149283;27;20047;-92
2021/09/19 02:18:46;;;;;;;7.97;5.95;;;;;;;16.47;92.22;98598.69;5149925;27;20553;-93
2021/09/19 02:21:12;;;;;;;8.75;5.38;;;;;;;16.41;92.60;98599.88;5149776;27;20042;-94
2021/09/19 02:23:38;;;;;;;8.48;6.03;;;;;;;16.34;92.85;98598.47;5152249;27;20053;-93
2021/09/19 02:26:05;;;;;;;10.70;5.85;;;;;;;16.37;93.03;98595.63;5151066;27;20041;-94
2021/09/19 02:28:31;;;;;;;9.85;5.82;;;;;;;16.37;93.10;98596.50;5149561;27;20073;-94
2021/09/19 02:30:57;;;;;;;11.02;5.85;;;;;;;16.36;92.73;98608.19;5148803;27;20031;-94
2021/09/19 02:33:24;;;;;;;8.20;5.57;;;;;;;16.36;93.14;98607.31;5151461;27;20036;-93
2021/09/19 02:35:50;;;;;;;9.10;6.60;;;;;;;16.22;92.87;98590.13;5155616;27;20433;-93
2021/09/19 02:38:16;;;;;;;8.00;6.25;;;;;;;16.32;92.99;98609.28;5154859;27;20039;-93
2021/09/19 02:40:42;;;;;;;10.55;6.80;;;;;;;16.25;93.21;98597.16;5152331;27;20039;-94
2021/09/19 02:43:07;;;;;;;10.48;6.20;;;;;;;16.27;93.48;98599.75;5151119;27;20103;-91
2021/09/19 02:45:33;;;;;;;12.55;6.30;;;;;;;16.26;93.46;98600.69;5145940;27;20064;-93
2021/09/19 02:48:00;;;;;;;10.13;7.43;;;;;;;16.23;94.04;98599.91;5146654;27;20121;-93
2021/09/19 02:50:27;;;;;;;10.18;7.13;;;;;;;16.32;94.06;98597.69;5149397;27;20038;-93
2021/09/19 02:52:53;;;;;;;9.75;6.95;;;;;;;16.42;93.98;98598.94;5149315;27;20058;-93
2021/09/19 02:55:20;;;;;;;8.95;6.40;;;;;;;16.42;93.47;98601.63;5149034;27;20047;-94
2021/09/19 02:57:46;;;;;;;9.82;6.22;;;;;;;16.43;93.09;98596.16;5145522;27;20061;-94
2021/09/19 03:00:15;;;;;;;9.85;6.35;;;;;;;16.43;93.25;98590.78;5146297;27;20080;-91
2021/09/19 03:02:41;;;;;;;;;;;;;;;16.51;93.32;98595.75;5144569;27;20091;-93
2021/09/19 03:05:08;;;;;;;10.88;6.25;;;;;;;16.39;93.43;98589.25;5150131;27;19919;-93
2021/09/19 03:07:36;;;;;;;10.73;6.50;;;;;;;16.28;92.89;98569.28;5148108;27;20035;-93
2021/09/19 03:10:04;;;;;;;11.57;6.80;;;;;;;16.22;94.45;98568.66;5151692;27;20083;-93
2021/09/19 03:12:30;;;;;;;12.20;7.65;;;;;;;16.34;94.42;98585.06;5146043;27;20095;-93
2021/09/19 03:14:56;;;;;;;9.32;6.38;;;;;;;16.36;94.40;98569.75;5155132;27;20039;-92
2021/09/19 03:17:21;;;;;;;10.55;6.65;;;;;;;16.25;93.91;98558.72;5150093;27;20065;-92
2021/09/19 03:19:47;;;;;;;9.75;6.25;;;;;;;16.38;93.63;98575.91;5149874;27;20049;-93
2021/09/19 03:22:13;;;;;;;10.55;6.53;;;;;;;16.26;94.29;98560.44;5147483;27;20077;-93
2021/09/19 03:24:41;;;;;;;9.77;6.32;;;;;;;16.20;94.37;98548.25;5150408;27;20088;-93
2021/09/19 03:27:07;;;;;;;15.30;7.57;;;;;;;16.12;94.44;98540.59;5150167;27;20038;-93
2021/09/19 03:29:33;;;;;;;8.07;5.88;;;;;;;16.08;94.70;98535.47;5147057;27;20094;-95
2021/09/19 03:31:59;;;;;;;12.23;6.70;;;;;;;15.99;94.38;98531.47;5144809;27;20046;-93
2021/09/19 03:34:25;;;;;;;8.57;6.28;;;;;;;15.99;94.74;98532.31;5150081;27;20047;-92
2021/09/19 03:36:51;;;;;;;10.07;6.55;;;;;;;16.03;94.60;98535.72;5146808;27;20100;-93
2021/09/19 03:39:16;;;;;;;10.57;6.13;;;;;;;16.15;93.99;98550.28;5150011;27;20054;-93
2021/09/19 03:41:44;;;;;;;9.02;6.78;;;;;;;16.09;93.74;98539.88;5150753;27;20088;-93
2021/09/19 03:44:10;;;;;;;9.77;6.38;;;;;;;15.93;94.82;98526.44;5145655;27;20039;-93
2021/09/19 03:46:37;;;;;;;10.85;6.20;;;;;;;15.88;94.58;98524.00;5146012;27;20499;-92
2021/09/19 03:49:03;;;;;;;9.82;6.35;;;;;;;15.87;95.28;98532.09;5146659;27;20043;-93
2021/09/19 03:51:28;;;;;;;12.27;6.00;;;;;;;15.91;95.22;98536.38;5147987;27;20068;-93
2021/09/19 03:53:54;;;;;;;9.32;6.07;;;;;;;15.90;94.77;98546.22;5148619;27;20038;-93
2021/09/19 03:56:20;;;;;;;11.52;6.20;;;;;;;15.93;95.07;98545.19;5154180;27;20043;-93
2021/09/19 03:58:49;;;;;;;12.38;6.50;;;;;;;15.87;94.95;98540.16;5145423;27;20126;-93
2021/09/19 04:01:15;;;;;;;10.43;6.33;;;;;;;15.93;94.48;98537.16;5148610;27;20487;-92
2021/09/19 04:03:41;;;;;;;9.50;5.95;;;;;;;15.93;94.19;98529.09;5146876;27;20046;-92
2021/09/19 04:06:06;;;;;;;11.30;6.50;;;;;;;15.75;95.46;98514.84;5154283;27;20035;-94
2021/09/19 04:08:32;;;;;;;9.82;6.50;;;;;;;15.75;95.33;98521.09;5143268;27;20079;-92
2021/09/19 04:10:58;;;;;;;9.50;5.70;;;;;;;15.84;95.53;98543.88;5143255;27;20100;-93
2021/09/19 04:13:24;;;;;;;9.88;6.40;;;;;;;15.64;96.48;98520.75;5144315;27;20438;-92
2021/09/19 04:15:51;;;;;;;13.98;6.43;;;;;;;15.72;96.59;98541.81;5145786;27;20039;-92
2021/09/19 04:18:17;;;;;;;11.68;6.68;;;;;;;15.66;96.72;98540.28;5145541;27;20074;-93
2021/09/19 04:20:44;;;;;;;12.57;6.43;;;;;;;15.64;96.51;98523.44;5147641;27;20047;-93
2021/09/19 04:23:10;;;;;;;8.50;6.03;;;;;;;15.62;96.19;98511.91;5151790;27;20031;-92
2021/09/19 04:25:36;;;;;;;10.20;6.05;;;;;;;15.91;96.50;98547.09;5146522;27;20034;-94
2021/09/19 04:28:03;;;;;;;11.35;6.45;;;;;;;15.77;96.24;98516.50;5145933;27;20027;-94
2021/09/19 04:30:29;;;;;;;9.98;6.75;;;;;;;15.95;96.36;98528.06;5151780;27;20047;-92
2021/09/19 04:32:56;;;;;;;10.23;6.25;;;;;;;16.00;96.37;98528.72;5151658;27;20478;-92
2021/09/19 04:35:23;;;;;;;10.40;6.32;;;;;;;16.05;96.52;98515.06;5147438;27;20047;-93
2021/09/19 04:37:49;;;;;;;10.75;6.43;;;;;;;16.18;96.32;98521.50;5145429;27;20066;-94
2021/09/19 04:40:15;;;;;;;14.02;6.18;;;;;;;16.36;95.06;98532.19;5148554;27;20040;-94
2021/09/19 04:42:41;;;;;;;10.70;6.40;;;;;;;16.46;94.79;98530.72;5145476;27;20038;-93
2021/09/19 04:45:09;;;;;;;9.77;6.75;;;;;;;16.53;94.07;98532.13;5152457;27;20126;-95
2021/09/19 04:47:37;;;;;;;8.02;5.82;;;;;;;16.48;93.15;98523.47;5151040;27;20066;-93
2021/09/19 04:50:05;;;;;;;11.10;6.53;;;;;;;16.36;92.66;98510.72;5149568;27;20117;-95
2021/09/19 04:52:31;;;;;;;9.10;6.10;;;;;;;16.43;92.33;98515.63;5152985;27;20039;-93
2021/09/19 04:54:57;;;;;;;13.43;6.35;;;;;;;16.43;91.80;98509.41;5148371;27;20037;-95
2021/09/19 04:57:23;;;;;;;11.68;6.00;;;;;;;16.48;91.62;98520.78;5152775;27;20050;-93
2021/09/19 04:59:49;;;;;;;13.43;6.30;;;;;;;16.53;91.44;98515.16;5143968;27;20576;-92
2021/09/19 05:02:15;;;;;;;9.52;5.97;;;;;;;16.52;91.71;98514.25;5151070;27;20113;-92
2021/09/19 05:04:41;;;;;;;11.50;6.05;;;;;;;16.54;91.05;98523.09;5147645;27;20050;-94
2021/09/19 05:07:08;;;;;;;10.73;6.07;;;;;;;16.69;91.37;98531.25;5147618;27;20063;-92
2021/09/19 05:09:34;;;;;;;9.43;6.63;;;;;;;16.66;91.86;98520.72;5145026;27;20078;-93
2021/09/19 05:12:00;;;;;;;9.30;5.18;;;;;;;16.80;91.77;98521.66;5147662;27;20054;-94
2021/09/19 05:14:25;;;;;;;10.20;6.05;;;;;;;16.82;91.62;98519.78;5147725;27;20031;-94
2021/09/19 05:16:51;;;;;;;11.40;5.53;;;;;;;16.86;91.46;98525.84;5151964;27;20054;-92
2021/09/19 05:19:17;;;;;;;8.55;5.93;;;;;;;16.93;90.93;98543.34;5152640;27;20030;-94
2021/09/19 05:21:44;;;;;;;9.18;6.07;;;;;;;16.88;90.21;98521.25;5146391;27;20054;-92
2021/09/19 05:24:11;;;;;;;9.77;6.28;;;;;;;16.94;88.42;98531.66;5143447;27;20130;-94
2021/09/19 05:26:38;;;;;;;10.13;5.78;;;;;;;17.12;87.58;98545.84;5161659;27;20163;-92
2021/09/19 05:29:03;;;;;;;8.57;5.55;;;;;;;17.03;87.39;98535.63;5160265;27;20051;-93
2021/09/19 05:31:30;;;;;;;11.20;5.93;;;;;;;17.09;87.46;98534.41;5146214;27;20092;-94
2021/09/19 05:33:56;;;;;;;9.82;5.72;;;;;;;17.22;86.66;98549.75;5157772;27;20369;-93
2021/09/19 05:36:22;;;;;;;7.97;5.43;;;;;;;17.23;86.66;98547.91;5155766;27;20040;-94
2021/09/19 05:38:48;;;;;;;10.75;5.40;;;;;;;17.25;86.84;98546.00;5154626;27;20239;-94
2021/09/19 05:41:16;;;;;;;7.85;5.90;;;;;;;17.28;86.87;98535.06;5154935;27;20038;-94
2021/09/19 05:43:41;;;;;;;7.55;5.65;;;;;;;17.32;87.48;98538.47;5153842;27;20118;-96
2021/09/19 05:46:07;;;;;;;8.60;5.35;;;;;;;17.47;88.25;98572.50;5150008;27;20515;-92
2021/09/19 05:48:33;;;;;;;8.38;5.55;;;;;;;17.48;88.03;98565.28;5149531;27;20031;-95
2021/09/19 05:50:59;;;;;;;8.60;5.75;;;;;;;17.48;87.59;98559.91;5154111;27;20515;-94
2021/09/19 05:53:25;;;;;;;9.40;5.57;;;;;;;17.57;87.56;98556.72;5152823;27;20058;-94
2021/09/19 05:55:51;;;;;;;10.45;5.60;;;;;;;17.74;87.31;98575.41;5155657;27;20038;-94
2021/09/19 05:58:18;;;;;;;11.70;6.50;;;;;;;17.83;86.81;98582.94;5154342;27;20121;-94
2021/09/19 06:00:44;;;;;;;8.98;5.18;;;;;;;17.79;86.70;98564.38;5149764;27;20042;-94
2021/09/19 06:03:10;;;;;;;8.82;5.70;;;;;;;18.01;87.09;98597.09;5145030;27;20587;-92
2021/09/19 06:05:36;;;;;;;9.85;5.90;;;;;;;18.01;86.94;98577.41;5143443;27;20069;-95
2021/09/19 06:08:02;;;;;;;9.85;5.82;;;;;;;18.04;85.54;98566.47;5153443;27;20035;-96
2021/09/19 06:10:28;;;;;;;12.15;6.18;;;;;;;18.03;84.86;98565.59;5157103;27;20039;-94
2021/09/19 06:12:54;;;;;;;8.90;5.70;;;;;;;18.02;84.01;98554.91;5150243;27;20047;-94
2021/09/19 06:15:21;;;;;;;10.73;7.65;;;;;;;18.37;83.15;98578.81;5144029;27;20062;-95
2021/09/19 06:17:47;;;;;;;9.23;6.13;;;;;;;18.44;81.54;98572.09;5141354;27;20400;-93
2021/09/19 06:20:13;;;;;;;10.23;6.00;;;;;;;18.74;81.17;98581.91;5143447;27;20039;-95
2021/09/19 06:22:39;;;;;;;11.90;5.82;;;;;;;18.81;80.39;98559.03;5158795;27;20050;-95
2021/09/19 06:25:06;;;;;;;9.05;6.15;;;;;;;18.97;80.16;98554.34;5143383;27;20127;-94
2021/09/19 06:27:32;;;;;;;11.85;6.25;;;;;;;19.24;79.06;98583.19;5155153;27;20514;-94
2021/09/19 06:29:58;;;;;;;9.57;6.95;;;;;;;19.24;78.43;98557.09;5157324;27;20039;-94
2021/09/19 06:32:25;;;;;;;9.85;6.32;;;;;;;19.41;77.80;98564.06;5148577;27;20043;-94
2021/09/19 06:34:51;;;;;;;10.98;5.93;;;;;;;19.43;77.42;98556.75;5148996;27;20035;-95
2021/09/19 06:37:17;;;;;;;7.95;6.00;;;;;;;19.58;77.14;98557.56;5149783;27;20066;-94
2021/09/19 06:39:43;;;;;;;8.57;5.55;;;;;;;19.55;77.21;98548.78;5152760;27;20039;-94
2021/09/19 06:42:09;;;;;;;10.18;5.40;;;;;;;19.72;76.62;98561.19;5150626;27;20046;-93
2021/09/19 06:44:35;;;;;;;14.60;6.25;;;;;;;19.65;77.07;98580.44;5157129;27;20080;-95
2021/09/19 06:47:01;;;;;;;8.70;5.72;;;;;;;19.54;77.21;98580.31;5152713;27;20043;-92
2021/09/19 06:49:29;;;;;;;8.10;5.25;;;;;;;19.53;77.91;98564.22;5146254;27;20045;-93
2021/09/19 06:51:55;;;;;;;8.68;5.38;;;;;;;19.64;77.06;98551.72;5152296;27;20043;-92
2021/09/19 06:54:21;;;;;;;7.85;5.50;;;;;;;19.98;75.92;98538.66;5147821;27;20091;-95
2021/09/19 06:56:49;;;;;;;12.68;5.50;;;;;;;20.17;74.86;98532.84;5147458;27;20084;-94
2021/09/19 06:59:15;;;;;;;10.40;5.07;;;;;;;20.21;74.18;98539.75;5150117;27;20046;-96
2021/09/19 07:01:46;;;;;;;9.43;6.40;;;;;;;20.39;74.63;98543.00;5154873;27;20492;-95
2021/09/19 07:04:13;;;;;;;11.18;5.60;;;;;;;20.58;73.22;98542.59;5151667;27;20038;-96
2021/09/19 07:06:45;;;;;;;9.90;5.60;;;;;;;20.86;72.48;98551.38;5150294;27;20050;-93
2021/09/19 07:09:12;;;;;;;9.70;5.40;;;;;;;20.75;71.59;98529.69;5150796;27;20031;-92
2021/09/19 07:11:38;;;;;;;10.45;5.20;;;;;;;20.90;71.61;98542.94;5156263;27;20138;-94
2021/09/19 07:14:04;;;;;;;9.75;5.82;;;;;;;20.91;71.11;98531.16;5157041;27;20107;-95
2021/09/19 07:16:30;;;;;;;10.43;5.80;;;;;;;20.92;71.25;98523.91;5154318;27;20050;-94
2021/09/19 07:18:57;;;;;;;10.45;5.57;;;;;;;21.09;70.71;98530.78;5154266;27;20088;-95
2021/09/19 07:21:23;;;;;;;14.32;6.22;;;;;;;21.37;69.08;98556.63;5148419;27;20114;-93
2021/09/19 07:23:51;;;;;;;9.27;6.05;;;;;;;21.38;69.03;98546.66;5152330;27;20118;-94
2021/09/19 07:26:17;;;;;;;9.50;6.18;;;;;;;21.45;69.92;98543.44;5153773;27;20041;-94
2021/09/19 07:28:44;;;;;;;11.70;6.82;;;;;;;21.20;70.66;98530.84;5153610;27;20073;-96
2021/09/19 07:31:10;;;;;;;13.00;6.78;;;;;;;21.15;70.83;98543.00;5154072;27;20042;-93
2021/09/19 07:33:37;;;;;;;13.05;7.20;;;;;;;20.83;71.69;98530.00;5153847;27;20031;-94
2021/09/19 07:36:03;;;;;;;9.70;6.53;;;;;;;20.85;71.89;98542.41;5161284;27;20046;-92
2021/09/19 07:38:32;;;;;;;14.75;7.13;;;;;;;20.89;72.34;98559.28;5151938;27;20049;-96
2021/09/19 07:41:00;;;;;;;;;;;;;;;20.93;72.51;98561.63;5155815;27;20043;-96
2021/09/19 07:43:26;;;;;;;11.40;7.22;;;;;;;20.96;71.92;98527.25;5156177;27;19973;-94
2021/09/19 07:45:52;;;;;;;12.75;7.28;;;;;;;21.42;71.03;98538.22;5157525;27;20035;-94
2021/09/19 07:48:21;;;;;;;15.45;7.85;;;;;;;21.76;69.41;98541.09;5151619;27;20126;-94
2021/09/19 07:50:47;;;;;;;11.60;7.85;;;;;;;21.84;68.10;98532.38;5159474;27;20038;-95
2021/09/19 07:53:14;;;;;;;12.48;6.65;;;;;;;22.09;68.16;98537.59;5152866;27;20038;-93
2021/09/19 07:55:40;;;;;;;10.80;7.20;;;;;;;22.49;67.65;98556.19;5150175;27;20043;-94
2021/09/19 07:58:08;;;;;;;11.07;6.70;;;;;;;22.74;65.88;98521.69;5153421;27;20042;-94
2021/09/19 08:00:34;;;;;;;11.23;6.60;;;;;;;23.01;64.37;98537.59;5155315;27;20043;-95
2021/09/19 08:03:00;;;;;;;13.25;7.18;;;;;;;22.92;64.35;98530.16;5158752;27;20107;-95
2021/09/19 08:05:26;;;;;;;12.65;6.85;;;;;;;22.35;66.31;98543.72;5166610;27;20047;-96
2021/09/19 08:07:53;;;;;;;13.68;6.95;;;;;;;22.29;67.27;98543.34;5167214;27;20073;-96
2021/09/19 08:10:20;;;;;;;13.52;7.68;;;;;;;22.70;66.02;98552.72;5161340;27;20072;-95
2021/09/19 08:15:46;;;;;;;12.07;6.78;;;;;;;23.63;64.09;98557.75;5134683;27;20376;-95
2021/09/19 08:18:12;;;;;;;15.00;7.68;;;;;;;23.61;64.06;98539.88;5138839;28;20499;-95
2021/09/19 08:20:38;;;;;;;19.27;8.70;;;;;;;23.44;64.53;98574.72;5137124;28;20134;-92
2021/09/19 08:23:04;;;;;;;11.77;7.55;;;;;;;23.60;64.14;98568.88;5136813;28;20134;-93
2021/09/19 08:25:30;;;;;;;12.82;7.57;;;;;;;23.39;65.36;98557.97;5139745;27;20040;-94
2021/09/19 08:27:56;;;;;;;11.90;7.93;;;;;;;22.36;68.17;98560.84;5139915;27;20095;-95
2021/09/19 08:30:22;;;;;;;13.20;8.15;;;;;;;22.05;69.74;98568.59;5140281;28;20043;-95
2021/09/19 08:32:50;;;;;;;15.52;7.97;;;;;;;22.19;69.76;98567.56;5142263;28;20047;-95
2021/09/19 08:35:16;;;;;;;14.60;8.87;;;;;;;21.96;70.50;98542.25;5141155;28;20384;-94
2021/09/19 08:37:42;;;;;;;11.63;7.97;;;;;;;21.76;71.35;98561.88;5134905;28;20043;-93
2021/09/19 08:40:11;;;;;;;13.18;8.77;;;;;;;22.14;69.90;98572.44;5133618;28;20135;-92
2021/09/19 08:42:38;;;;;;;14.57;8.10;;;;;;;22.58;68.54;98564.56;5132974;28;20122;-94
2021/09/19 08:45:05;;;;;;;12.77;8.02;;;;;;;22.92;67.54;98573.53;5132019;28;20097;-92
2021/09/19 08:47:31;;;;;;;16.50;8.50;;;;;;;23.30;66.29;98577.72;5134650;28;20477;-93
2021/09/19 08:49:59;;;;;;;13.50;8.65;;;;;;;23.47;65.36;98552.75;5131304;28;20434;-92
2021/09/19 08:52:24;;;;;;;16.42;8.85;;;;;;;23.71;64.32;98555.25;5133334;28;20035;-94
2021/09/19 08:54:50;;;;;;;15.50;9.00;;;;;;;23.70;64.09;98539.97;5134310;28;20036;-95
2021/09/19 08:57:17;;;;;;;14.18;8.23;;;;;;;23.87;63.25;98548.56;5134140;27;20043;-92
2021/09/19 08:59:45;;;;;;;16.70;9.15;;;;;;;23.98;63.35;98556.66;5134050;28;20032;-92
2021/09/19 09:02:14;;;;;;;16.42;8.45;;;;;;;24.15;62.37;98553.34;5133110;28;20628;-93
2021/09/19 09:04:40;;;;;;;12.55;8.13;;;;;;;24.26;61.43;98555.13;5132136;28;20039;-95
2021/09/19 09:07:07;;;;;;;12.75;7.00;;;;;;;24.36;61.47;98555.19;5134184;28;20084;-95
2021/09/19 09:09:34;;;;;;;11.23;7.23;;;;;;;24.39;61.16;98517.72;5134994;28;20035;-94
2021/09/19 09:12:02;;;;;;;13.43;7.65;;;;;;;24.56;60.97;98534.44;5133925;27;20329;-94
2021/09/19 09:14:28;;;;;;;13.98;7.15;;;;;;;24.56;59.97;98553.47;5126811;27;20063;-96
2021/09/19 09:17:10;;;;;;;14.07;7.07;;;;;;;24.72;59.80;98544.81;5122224;28;20060;-94
2021/09/19 09:19:37;;;;;;;13.88;7.20;;;;;;;24.74;59.45;98521.06;5115412;28;20054;-95
2021/09/19 09:22:03;;;;;;;10.77;7.25;;;;;;;24.99;59.03;98533.31;5134932;28;20061;-94
2021/09/19 09:24:31;;;;;;;13.55;7.38;;;;;;;25.12;58.25;98523.03;5132119;27;20488;-95
2021/09/19 09:26:56;;;;;;;14.95;7.53;;;;;;;24.93;57.08;98518.41;5121520;27;20493;-94
2021/09/19 09:29:23;;;;;;;16.48;7.38;;;;;;;25.27;57.96;98506.34;5120563;28;20131;-93
2021/09/19 09:31:51;;;;;;;11.77;6.93;;;;;;;25.46;56.70;98491.88;5122560;28;20113;-94
2021/09/19 09:34:18;;;;;;;13.80;6.97;;;;;;;25.59;55.63;98496.06;5122023;28;20039;-93
2021/09/19 09:36:48;;;;;;;13.27;6.72;;;;;;;25.67;55.79;98475.41;5123805;28;20048;-93
2021/09/19 09:39:39;;;;;;;12.20;6.50;;;;;;;25.85;54.63;98495.47;5123633;28;20043;-93
2021/09/19 09:42:07;;;;;;;10.43;6.70;;;;;;;25.78;54.93;98483.41;5128398;28;20042;-95
2021/09/19 09:44:39;;;;;;;11.43;8.30;;;;;;;25.51;54.85;98493.19;5122304;28;20099;-95
2021/09/19 09:47:08;;;;;;;15.65;8.25;;;;;;;25.75;55.04;98484.56;5118175;28;20422;-96
2021/09/19 09:49:37;;;;;;;13.55;6.63;;;;;;;25.92;54.62;98476.72;5121216;28;20039;-96
2021/09/19 09:52:05;;;;;;;11.10;8.13;;;;;;;25.91;52.90;98464.94;5121589;28;20091;-96
2021/09/19 09:54:42;;;;;;;12.38;6.82;;;;;;;25.86;52.61;98479.97;5122379;28;20044;-95
2021/09/19 09:57:11;;;;;;;11.02;5.68;;;;;;;26.04;51.54;98483.69;5124346;28;20119;-96
2021/09/19 09:59:42;;;;;;;10.10;4.85;;;;;;;26.16;50.12;98455.28;5124603;28;20032;-96
2021/09/19 10:02:10;;;;;;;8.23;5.55;;;;;;;25.93;50.77;98464.78;5124943;28;20044;-96
2021/09/19 10:04:36;;;;;;;11.88;5.55;;;;;;;26.27;50.62;98450.66;5122486;28;20047;-95
2021/09/19 10:07:03;;;;;;;9.48;5.70;;;;;;;26.51;49.69;98474.66;5124020;28;20063;-96
2021/09/19 10:09:30;;;;;;;7.50;4.78;;;;;;;26.57;49.50;98479.56;5122908;28;20040;-96
2021/09/19 10:11:57;;;;;;;8.82;5.35;;;;;;;26.28;49.67;98475.03;5121862;28;20042;-95
2021/09/19 10:14:23;;;;;;;7.88;4.97;;;;;;;26.23;48.92;98472.75;5121677;28;20134;-96
2021/09/19 10:16:49;;;;;;;10.95;5.55;;;;;;;25.90;50.36;98449.59;5126091;28;20062;-96
2021/09/19 10:19:19;;;;;;;9.23;5.85;;;;;;;26.36;50.58;98445.16;5122650;28;20056;-96
2021/09/19 10:21:47;;;;;;;10.18;5.32;;;;;;;26.17;49.76;98439.78;5122971;28;20051;-95
2021/09/19 10:24:13;;;;;;;8.35;5.07;;;;;;;26.43;50.11;98448.13;5125698;28;20036;-96
2021/09/19 10:26:53;;;;;;;7.80;5.15;;;;;;;26.41;50.41;98453.78;5129224;28;20052;-95
2021/09/19 10:29:22;;;;;;;10.07;5.43;;;;;;;26.84;49.03;98421.41;5129553;28;20048;-96
2021/09/19 10:31:49;;;;;;;8.48;5.50;;;;;;;26.75;47.59;98444.16;5127537;28;20054;-96
2021/09/19 10:34:26;;;;;;;9.63;5.40;;;;;;;26.99;47.84;98465.41;5128731;28;20059;-95
2021/09/19 10:36:55;;;;;;;7.45;4.85;;;;;;;26.95;46.80;98433.97;5129500;28;20058;-95
2021/09/19 10:39:24;;;;;;;7.43;5.05;;;;;;;26.61;48.25;98443.66;5129454;28;20043;-96
2021/09/19 10:42:13;;;;;;;9.85;5.38;;;;;;;26.37;49.66;98468.69;5127803;28;20050;-96
2021/09/19 10:45:10;;;;;;;10.18;5.00;;;;;;;26.29;49.81;98449.50;5129428;28;20044;-96
2021/09/19 10:47:40;;;;;;;6.85;4.70;;;;;;;26.34;48.21;98440.88;5132267;28;20059;-96
2021/09/19 10:50:27;;;;;;;8.45;4.50;;;;;;;26.70;48.59;98457.41;5132699;28;20046;-96
2021/09/19 11:00:18;;;;;;;8.18;4.50;;;;;;;26.98;44.88;98436.41;5108192;28;20115;-96
2021/09/19 11:03:07;;;;;;;8.77;4.40;;;;;;;27.29;44.84;98439.66;5106422;28;20106;-96
2021/09/19 11:05:51;;;;;;;7.90;4.45;;;;;;;27.15;44.26;98424.66;5111716;28;20067;-96
2021/09/19 11:08:40;;;;;;;7.70;3.95;;;;;;;27.36;44.07;98445.34;5112502;28;20099;-96
2021/09/19 11:11:38;;;;;;;8.52;4.65;;;;;;;27.45;44.50;98434.34;5511993;22;20115;-95
2021/09/19 11:14:14;;;;;;;7.30;4.43;;;;;;;27.45;43.52;98422.56;5108918;28;20039;-95
2021/09/19 11:17:38;;;;;;;7.63;4.00;;;;;;;27.37;44.27;98400.63;5050039;28;20036;-95
2021/09/19 11:20:21;;;;;;;6.10;4.57;;;;;;;27.25;44.80;98384.50;5112777;28;20054;-96
2021/09/19 11:22:53;;;;;;;7.57;4.25;;;;;;;26.69;45.59;98374.69;5108953;28;20036;-95
2021/09/19 11:25:25;;;;;;;7.85;4.22;;;;;;;26.90;44.86;98388.06;5108606;28;20040;-95
2021/09/19 11:27:55;;;;;;;13.23;3.90;;;;;;;27.10;44.28;98371.53;5106258;28;20044;-95
2021/09/19 11:30:28;;;;;;;6.53;4.45;;;;;;;27.19;45.01;98376.91;5091802;28;20041;-94
2021/09/19 11:32:56;;;;;;;7.63;4.40;;;;;;;26.78;45.17;98359.28;5086532;28;20044;-96
2021/09/19 11:35:22;;;;;;;6.15;4.40;;;;;;;26.99;44.92;98364.44;5085226;28;20040;-95
2021/09/19 11:37:55;;;;;;;8.68;4.68;;;;;;;26.50;46.75;98363.88;5084082;28;20048;-95
2021/09/19 11:40:27;;;;;;;6.30;4.22;;;;;;;26.51;46.42;98368.31;5087711;28;20044;-95
2021/09/19 11:43:09;;;;;;;7.85;4.70;;;;;;;26.34;48.13;98365.38;5087965;28;20101;-95